sensor_id;sensor_type;location;lat;lon;timestamp;P1;durP1;ratioP1;P2;durP2;ratioP2
13855;SDS011;6998;53.608;9.958;2022-07-25T00:01:46;9.57;;;8.68;;
13855;SDS011;6998;53.608;9.958;2022-07-25T00:04:13;10.02;;;9.07;;
13855;SDS011;6998;53.608;9.958;2022-07-25T00:06:41;10.05;;;9.25;;
13855;SDS011;6998;53.608;9.958;2022-07-25T00:09:09;9.43;;;8.07;;
13855;SDS011;6998;53.608;9.958;2022-07-25T00:11:36;10.00;;;9.10;;
13855;SDS011;6998;53.608;9.958;2022-07-25T00:14:03;10.05;;;9.15;;
13855;SDS011;6998;53.608;9.958;2022-07-25T00:16:30;9.93;;;9.05;;
13855;SDS011;6998;53.608;9.958;2022-07-25T00:18:57;9.45;;;8.55;;
13855;SDS011;6998;53.608;9.958;2022-07-25T00:21:24;10.18;;;9.38;;
13855;SDS011;6998;53.608;9.958;2022-07-25T00:23:52;10.25;;;9.30;;
13855;SDS011;6998;53.608;9.958;2022-07-25T00:26:19;10.15;;;9.25;;
13855;SDS011;6998;53.608;9.958;2022-07-25T00:28:45;10.40;;;9.40;;
13855;SDS011;6998;53.608;9.958;2022-07-25T00:31:12;10.13;;;9.20;;
13855;SDS011;6998;53.608;9.958;2022-07-25T00:33:39;10.38;;;9.35;;
13855;SDS011;6998;53.608;9.958;2022-07-25T00:36:06;9.80;;;9.00;;
13855;SDS011;6998;53.608;9.958;2022-07-25T00:38:33;9.50;;;8.57;;
13855;SDS011;6998;53.608;9.958;2022-07-25T00:41:01;10.48;;;9.57;;
13855;SDS011;6998;53.608;9.958;2022-07-25T00:43:29;9.25;;;8.50;;
13855;SDS011;6998;53.608;9.958;2022-07-25T00:45:56;9.80;;;8.90;;
13855;SDS011;6998;53.608;9.958;2022-07-25T00:48:23;9.30;;;8.50;;
13855;SDS011;6998;53.608;9.958;2022-07-25T00:50:49;9.45;;;8.65;;
13855;SDS011;6998;53.608;9.958;2022-07-25T00:53:16;10.05;;;9.10;;
13855;SDS011;6998;53.608;9.958;2022-07-25T00:55:43;9.65;;;8.85;;
13855;SDS011;6998;53.608;9.958;2022-07-25T00:58:13;8.98;;;8.25;;
13855;SDS011;6998;53.608;9.958;2022-07-25T01:00:39;9.20;;;8.40;;
13855;SDS011;6998;53.608;9.958;2022-07-25T01:03:06;10.43;;;9.35;;
13855;SDS011;6998;53.608;9.958;2022-07-25T01:05:33;9.85;;;9.02;;
13855;SDS011;6998;53.608;9.958;2022-07-25T01:08:00;9.70;;;8.80;;
13855;SDS011;6998;53.608;9.958;2022-07-25T01:10:28;10.20;;;8.48;;
13855;SDS011;6998;53.608;9.958;2022-07-25T01:12:55;9.93;;;8.30;;
13855;SDS011;6998;53.608;9.958;2022-07-25T01:15:24;9.70;;;8.80;;
13855;SDS011;6998;53.608;9.958;2022-07-25T01:17:51;9.10;;;8.30;;
13855;SDS011;6998;53.608;9.958;2022-07-25T01:20:19;9.02;;;8.23;;
13855;SDS011;6998;53.608;9.958;2022-07-25T01:22:47;9.35;;;8.55;;
13855;SDS011;6998;53.608;9.958;2022-07-25T01:25:14;8.70;;;8.00;;
13855;SDS011;6998;53.608;9.958;2022-07-25T01:27:42;10.80;;;8.32;;
13855;SDS011;6998;53.608;9.958;2022-07-25T01:30:10;9.25;;;7.57;;
13855;SDS011;6998;53.608;9.958;2022-07-25T01:32:37;7.90;;;7.20;;
13855;SDS011;6998;53.608;9.958;2022-07-25T01:35:06;8.57;;;7.70;;
13855;SDS011;6998;53.608;9.958;2022-07-25T01:37:35;7.75;;;6.97;;
13855;SDS011;6998;53.608;9.958;2022-07-25T01:40:02;8.18;;;7.47;;
13855;SDS011;6998;53.608;9.958;2022-07-25T01:42:30;8.00;;;7.15;;
13855;SDS011;6998;53.608;9.958;2022-07-25T01:44:57;8.60;;;7.00;;
13855;SDS011;6998;53.608;9.958;2022-07-25T01:47:25;7.80;;;7.10;;
13855;SDS011;6998;53.608;9.958;2022-07-25T01:49:51;7.68;;;6.90;;
13855;SDS011;6998;53.608;9.958;2022-07-25T01:52:18;8.40;;;7.60;;
13855;SDS011;6998;53.608;9.958;2022-07-25T01:54:46;7.43;;;6.72;;
13855;SDS011;6998;53.608;9.958;2022-07-25T01:57:13;7.72;;;7.13;;
13855;SDS011;6998;53.608;9.958;2022-07-25T01:59:40;7.10;;;6.50;;
13855;SDS011;6998;53.608;9.958;2022-07-25T02:02:07;7.40;;;6.70;;
13855;SDS011;6998;53.608;9.958;2022-07-25T02:04:34;7.07;;;6.47;;
13855;SDS011;6998;53.608;9.958;2022-07-25T02:07:02;7.47;;;6.78;;
13855;SDS011;6998;53.608;9.958;2022-07-25T02:09:29;7.35;;;6.65;;
13855;SDS011;6998;53.608;9.958;2022-07-25T02:11:57;7.20;;;6.60;;
13855;SDS011;6998;53.608;9.958;2022-07-25T02:14:24;7.75;;;7.03;;
13855;SDS011;6998;53.608;9.958;2022-07-25T02:16:51;7.50;;;6.72;;
13855;SDS011;6998;53.608;9.958;2022-07-25T02:19:18;7.60;;;6.90;;
13855;SDS011;6998;53.608;9.958;2022-07-25T02:21:45;9.38;;;6.70;;
13855;SDS011;6998;53.608;9.958;2022-07-25T02:24:11;7.90;;;6.97;;
13855;SDS011;6998;53.608;9.958;2022-07-25T02:26:38;7.65;;;7.05;;
13855;SDS011;6998;53.608;9.958;2022-07-25T02:29:06;8.30;;;7.53;;
13855;SDS011;6998;53.608;9.958;2022-07-25T02:31:33;7.50;;;6.80;;
13855;SDS011;6998;53.608;9.958;2022-07-25T02:34:00;8.00;;;7.30;;
13855;SDS011;6998;53.608;9.958;2022-07-25T02:36:27;12.18;;;6.90;;
13855;SDS011;6998;53.608;9.958;2022-07-25T02:38:54;7.60;;;6.90;;
13855;SDS011;6998;53.608;9.958;2022-07-25T02:41:20;9.18;;;7.13;;
13855;SDS011;6998;53.608;9.958;2022-07-25T02:43:47;7.30;;;6.70;;
13855;SDS011;6998;53.608;9.958;2022-07-25T02:46:15;8.05;;;7.25;;
13855;SDS011;6998;53.608;9.958;2022-07-25T02:48:42;7.93;;;7.22;;
13855;SDS011;6998;53.608;9.958;2022-07-25T02:51:09;7.72;;;7.13;;
13855;SDS011;6998;53.608;9.958;2022-07-25T02:53:35;8.10;;;7.30;;
13855;SDS011;6998;53.608;9.958;2022-07-25T02:56:02;8.57;;;7.10;;
13855;SDS011;6998;53.608;9.958;2022-07-25T02:58:29;8.00;;;7.10;;
13855;SDS011;6998;53.608;9.958;2022-07-25T03:00:56;8.23;;;7.38;;
13855;SDS011;6998;53.608;9.958;2022-07-25T03:03:24;7.60;;;6.88;;
13855;SDS011;6998;53.608;9.958;2022-07-25T03:05:51;7.43;;;6.75;;
13855;SDS011;6998;53.608;9.958;2022-07-25T03:08:18;7.60;;;6.90;;
13855;SDS011;6998;53.608;9.958;2022-07-25T03:10:44;7.70;;;6.70;;
13855;SDS011;6998;53.608;9.958;2022-07-25T03:13:11;8.63;;;6.85;;
13855;SDS011;6998;53.608;9.958;2022-07-25T03:15:38;6.60;;;6.10;;
13855;SDS011;6998;53.608;9.958;2022-07-25T03:18:04;7.35;;;6.63;;
13855;SDS011;6998;53.608;9.958;2022-07-25T03:20:33;7.03;;;6.45;;
13855;SDS011;6998;53.608;9.958;2022-07-25T03:22:59;6.90;;;6.25;;
13855;SDS011;6998;53.608;9.958;2022-07-25T03:25:26;6.80;;;6.20;;
13855;SDS011;6998;53.608;9.958;2022-07-25T03:27:53;6.95;;;6.35;;
13855;SDS011;6998;53.608;9.958;2022-07-25T03:30:20;6.53;;;5.93;;
13855;SDS011;6998;53.608;9.958;2022-07-25T03:32:47;7.78;;;6.25;;
13855;SDS011;6998;53.608;9.958;2022-07-25T03:35:14;6.88;;;6.18;;
13855;SDS011;6998;53.608;9.958;2022-07-25T03:37:42;6.78;;;6.07;;
13855;SDS011;6998;53.608;9.958;2022-07-25T03:40:10;6.40;;;5.82;;
13855;SDS011;6998;53.608;9.958;2022-07-25T03:42:38;5.75;;;5.35;;
13855;SDS011;6998;53.608;9.958;2022-07-25T03:45:05;6.35;;;5.70;;
13855;SDS011;6998;53.608;9.958;2022-07-25T03:47:32;6.05;;;5.53;;
13855;SDS011;6998;53.608;9.958;2022-07-25T03:49:59;5.65;;;5.15;;
13855;SDS011;6998;53.608;9.958;2022-07-25T03:52:26;5.90;;;5.30;;
13855;SDS011;6998;53.608;9.958;2022-07-25T03:54:54;5.28;;;4.88;;
13855;SDS011;6998;53.608;9.958;2022-07-25T03:57:21;7.68;;;5.57;;
13855;SDS011;6998;53.608;9.958;2022-07-25T03:59:48;6.32;;;5.68;;
13855;SDS011;6998;53.608;9.958;2022-07-25T04:02:14;5.78;;;5.28;;
13855;SDS011;6998;53.608;9.958;2022-07-25T04:04:41;5.90;;;5.03;;
13855;SDS011;6998;53.608;9.958;2022-07-25T04:07:08;8.70;;;5.25;;
13855;SDS011;6998;53.608;9.958;2022-07-25T04:09:34;5.68;;;5.10;;
13855;SDS011;6998;53.608;9.958;2022-07-25T04:12:03;5.93;;;5.03;;
13855;SDS011;6998;53.608;9.958;2022-07-25T04:14:30;8.20;;;4.50;;
13855;SDS011;6998;53.608;9.958;2022-07-25T04:16:58;7.20;;;4.47;;
13855;SDS011;6998;53.608;9.958;2022-07-25T04:19:25;5.28;;;4.78;;
13855;SDS011;6998;53.608;9.958;2022-07-25T04:21:51;5.07;;;4.40;;
13855;SDS011;6998;53.608;9.958;2022-07-25T04:24:18;5.90;;;4.28;;
13855;SDS011;6998;53.608;9.958;2022-07-25T04:26:45;5.47;;;4.57;;
13855;SDS011;6998;53.608;9.958;2022-07-25T04:29:13;4.65;;;4.13;;
13855;SDS011;6998;53.608;9.958;2022-07-25T04:31:40;5.05;;;4.55;;
13855;SDS011;6998;53.608;9.958;2022-07-25T04:34:06;5.15;;;4.65;;
13855;SDS011;6998;53.608;9.958;2022-07-25T04:36:33;6.35;;;4.47;;
13855;SDS011;6998;53.608;9.958;2022-07-25T04:39:00;6.78;;;4.00;;
13855;SDS011;6998;53.608;9.958;2022-07-25T04:41:26;4.43;;;3.97;;
13855;SDS011;6998;53.608;9.958;2022-07-25T04:43:53;4.88;;;4.35;;
13855;SDS011;6998;53.608;9.958;2022-07-25T04:46:21;5.60;;;4.32;;
13855;SDS011;6998;53.608;9.958;2022-07-25T04:48:48;5.07;;;4.05;;
13855;SDS011;6998;53.608;9.958;2022-07-25T04:51:15;5.95;;;4.13;;
13855;SDS011;6998;53.608;9.958;2022-07-25T04:53:43;10.15;;;4.45;;
13855;SDS011;6998;53.608;9.958;2022-07-25T04:56:09;5.40;;;4.28;;
13855;SDS011;6998;53.608;9.958;2022-07-25T04:58:36;4.38;;;3.97;;
13855;SDS011;6998;53.608;9.958;2022-07-25T05:01:03;4.68;;;3.70;;
13855;SDS011;6998;53.608;9.958;2022-07-25T05:03:31;5.28;;;4.38;;
13855;SDS011;6998;53.608;9.958;2022-07-25T05:05:58;4.05;;;3.65;;
13855;SDS011;6998;53.608;9.958;2022-07-25T05:08:25;4.15;;;3.70;;
13855;SDS011;6998;53.608;9.958;2022-07-25T05:10:52;4.40;;;4.00;;
13855;SDS011;6998;53.608;9.958;2022-07-25T05:13:18;4.32;;;3.90;;
13855;SDS011;6998;53.608;9.958;2022-07-25T05:15:45;4.28;;;3.72;;
13855;SDS011;6998;53.608;9.958;2022-07-25T05:18:12;10.63;;;4.10;;
13855;SDS011;6998;53.608;9.958;2022-07-25T05:20:40;4.47;;;3.65;;
13855;SDS011;6998;53.608;9.958;2022-07-25T05:23:07;4.03;;;3.63;;
13855;SDS011;6998;53.608;9.958;2022-07-25T05:25:33;5.15;;;4.40;;
13855;SDS011;6998;53.608;9.958;2022-07-25T05:28:00;5.88;;;3.80;;
13855;SDS011;6998;53.608;9.958;2022-07-25T05:30:27;4.85;;;3.67;;
13855;SDS011;6998;53.608;9.958;2022-07-25T05:32:54;6.00;;;3.83;;
13855;SDS011;6998;53.608;9.958;2022-07-25T05:35:21;4.95;;;3.65;;
13855;SDS011;6998;53.608;9.958;2022-07-25T05:37:49;4.13;;;3.42;;
13855;SDS011;6998;53.608;9.958;2022-07-25T05:40:16;4.78;;;3.70;;
13855;SDS011;6998;53.608;9.958;2022-07-25T05:42:43;6.60;;;3.63;;
13855;SDS011;6998;53.608;9.958;2022-07-25T05:45:10;4.85;;;4.00;;
13855;SDS011;6998;53.608;9.958;2022-07-25T05:47:37;4.40;;;3.78;;
13855;SDS011;6998;53.608;9.958;2022-07-25T05:50:04;4.50;;;3.90;;
13855;SDS011;6998;53.608;9.958;2022-07-25T05:52:31;5.00;;;3.80;;
13855;SDS011;6998;53.608;9.958;2022-07-25T05:54:59;8.02;;;4.22;;
13855;SDS011;6998;53.608;9.958;2022-07-25T05:57:26;4.80;;;3.75;;
13855;SDS011;6998;53.608;9.958;2022-07-25T05:59:52;6.43;;;3.80;;
13855;SDS011;6998;53.608;9.958;2022-07-25T06:02:19;9.13;;;3.78;;
13855;SDS011;6998;53.608;9.958;2022-07-25T06:04:46;6.78;;;3.88;;
13855;SDS011;6998;53.608;9.958;2022-07-25T06:07:12;5.30;;;4.00;;
13855;SDS011;6998;53.608;9.958;2022-07-25T06:09:39;6.68;;;3.92;;
13855;SDS011;6998;53.608;9.958;2022-07-25T06:12:07;8.10;;;3.72;;
13855;SDS011;6998;53.608;9.958;2022-07-25T06:14:34;9.18;;;3.80;;
13855;SDS011;6998;53.608;9.958;2022-07-25T06:17:01;5.38;;;3.33;;
13855;SDS011;6998;53.608;9.958;2022-07-25T06:19:27;5.32;;;3.67;;
13855;SDS011;6998;53.608;9.958;2022-07-25T06:21:54;4.28;;;3.58;;
13855;SDS011;6998;53.608;9.958;2022-07-25T06:24:21;7.07;;;4.03;;
13855;SDS011;6998;53.608;9.958;2022-07-25T06:26:48;4.53;;;3.58;;
13855;SDS011;6998;53.608;9.958;2022-07-25T06:29:16;5.25;;;3.42;;
13855;SDS011;6998;53.608;9.958;2022-07-25T06:31:42;6.25;;;3.50;;
13855;SDS011;6998;53.608;9.958;2022-07-25T06:34:09;5.55;;;3.75;;
13855;SDS011;6998;53.608;9.958;2022-07-25T06:36:36;8.20;;;3.67;;
13855;SDS011;6998;53.608;9.958;2022-07-25T06:39:03;7.68;;;3.70;;
13855;SDS011;6998;53.608;9.958;2022-07-25T06:41:29;8.95;;;3.85;;
13855;SDS011;6998;53.608;9.958;2022-07-25T06:43:56;4.43;;;3.53;;
13855;SDS011;6998;53.608;9.958;2022-07-25T06:46:24;6.82;;;4.20;;
13855;SDS011;6998;53.608;9.958;2022-07-25T06:48:54;4.80;;;3.50;;
13855;SDS011;6998;53.608;9.958;2022-07-25T06:51:21;7.20;;;3.58;;
13855;SDS011;6998;53.608;9.958;2022-07-25T06:53:49;5.45;;;3.92;;
13855;SDS011;6998;53.608;9.958;2022-07-25T06:56:16;6.85;;;3.65;;
13855;SDS011;6998;53.608;9.958;2022-07-25T06:58:43;4.22;;;3.60;;
13855;SDS011;6998;53.608;9.958;2022-07-25T07:01:10;5.68;;;3.75;;
13855;SDS011;6998;53.608;9.958;2022-07-25T07:03:38;4.68;;;3.70;;
13855;SDS011;6998;53.608;9.958;2022-07-25T07:06:04;3.95;;;3.55;;
13855;SDS011;6998;53.608;9.958;2022-07-25T07:08:33;4.43;;;3.50;;
13855;SDS011;6998;53.608;9.958;2022-07-25T07:11:00;4.40;;;3.70;;
13855;SDS011;6998;53.608;9.958;2022-07-25T07:13:27;3.97;;;3.42;;
13855;SDS011;6998;53.608;9.958;2022-07-25T07:15:56;3.80;;;3.47;;
13855;SDS011;6998;53.608;9.958;2022-07-25T07:18:23;3.90;;;3.60;;
13855;SDS011;6998;53.608;9.958;2022-07-25T07:20:51;5.90;;;3.58;;
13855;SDS011;6998;53.608;9.958;2022-07-25T07:23:18;4.10;;;3.42;;
13855;SDS011;6998;53.608;9.958;2022-07-25T07:25:45;4.80;;;3.67;;
13855;SDS011;6998;53.608;9.958;2022-07-25T07:28:12;5.95;;;3.78;;
13855;SDS011;6998;53.608;9.958;2022-07-25T07:30:39;3.92;;;3.33;;
13855;SDS011;6998;53.608;9.958;2022-07-25T07:33:06;5.03;;;3.60;;
13855;SDS011;6998;53.608;9.958;2022-07-25T07:35:33;4.70;;;3.42;;
13855;SDS011;6998;53.608;9.958;2022-07-25T07:38:01;4.57;;;3.90;;
13855;SDS011;6998;53.608;9.958;2022-07-25T07:40:28;3.78;;;3.47;;
13855;SDS011;6998;53.608;9.958;2022-07-25T07:42:55;4.75;;;3.70;;
13855;SDS011;6998;53.608;9.958;2022-07-25T07:45:25;6.13;;;3.80;;
13855;SDS011;6998;53.608;9.958;2022-07-25T07:47:52;4.82;;;3.70;;
13855;SDS011;6998;53.608;9.958;2022-07-25T07:50:20;4.40;;;3.97;;
13855;SDS011;6998;53.608;9.958;2022-07-25T07:52:48;6.53;;;3.85;;
13855;SDS011;6998;53.608;9.958;2022-07-25T07:55:18;3.90;;;3.60;;
13855;SDS011;6998;53.608;9.958;2022-07-25T07:58:02;6.10;;;4.32;;
13855;SDS011;6998;53.608;9.958;2022-07-25T08:00:29;6.57;;;4.35;;
13855;SDS011;6998;53.608;9.958;2022-07-25T08:02:58;4.50;;;4.03;;
13855;SDS011;6998;53.608;9.958;2022-07-25T08:05:26;4.38;;;3.92;;
13855;SDS011;6998;53.608;9.958;2022-07-25T08:07:53;5.65;;;4.00;;
13855;SDS011;6998;53.608;9.958;2022-07-25T08:10:24;6.25;;;3.85;;
13855;SDS011;6998;53.608;9.958;2022-07-25T08:12:52;4.72;;;4.25;;
13855;SDS011;6998;53.608;9.958;2022-07-25T08:15:19;4.20;;;3.88;;
13855;SDS011;6998;53.608;9.958;2022-07-25T08:17:47;5.10;;;4.13;;
13855;SDS011;6998;53.608;9.958;2022-07-25T08:20:15;6.50;;;3.92;;
13855;SDS011;6998;53.608;9.958;2022-07-25T08:22:43;5.68;;;3.90;;
13855;SDS011;6998;53.608;9.958;2022-07-25T08:25:12;4.53;;;4.10;;
13855;SDS011;6998;53.608;9.958;2022-07-25T08:27:41;7.35;;;4.22;;
13855;SDS011;6998;53.608;9.958;2022-07-25T08:30:10;4.35;;;3.85;;
13855;SDS011;6998;53.608;9.958;2022-07-25T08:32:45;4.63;;;4.20;;
13855;SDS011;6998;53.608;9.958;2022-07-25T08:35:13;5.30;;;4.00;;
13855;SDS011;6998;53.608;9.958;2022-07-25T08:37:40;5.90;;;4.15;;
13855;SDS011;6998;53.608;9.958;2022-07-25T08:40:08;6.43;;;4.13;;
13855;SDS011;6998;53.608;9.958;2022-07-25T08:42:36;5.88;;;4.22;;
13855;SDS011;6998;53.608;9.958;2022-07-25T08:45:05;4.85;;;4.35;;
13855;SDS011;6998;53.608;9.958;2022-07-25T08:47:33;4.47;;;4.07;;
13855;SDS011;6998;53.608;9.958;2022-07-25T08:50:01;4.95;;;4.30;;
13855;SDS011;6998;53.608;9.958;2022-07-25T08:52:29;4.75;;;4.35;;
13855;SDS011;6998;53.608;9.958;2022-07-25T08:54:59;4.78;;;4.20;;
13855;SDS011;6998;53.608;9.958;2022-07-25T08:57:27;4.63;;;4.20;;
13855;SDS011;6998;53.608;9.958;2022-07-25T08:59:55;6.57;;;4.28;;
13855;SDS011;6998;53.608;9.958;2022-07-25T09:02:24;4.93;;;4.28;;
13855;SDS011;6998;53.608;9.958;2022-07-25T09:04:52;8.05;;;4.55;;
13855;SDS011;6998;53.608;9.958;2022-07-25T09:07:27;5.80;;;4.47;;
13855;SDS011;6998;53.608;9.958;2022-07-25T09:09:55;5.50;;;4.80;;
13855;SDS011;6998;53.608;9.958;2022-07-25T09:12:24;4.72;;;4.32;;
13855;SDS011;6998;53.608;9.958;2022-07-25T09:14:53;5.15;;;4.65;;
13855;SDS011;6998;53.608;9.958;2022-07-25T09:17:20;4.68;;;4.20;;
13855;SDS011;6998;53.608;9.958;2022-07-25T09:19:55;4.45;;;4.05;;
13855;SDS011;6998;53.608;9.958;2022-07-25T09:22:22;5.15;;;4.25;;
13855;SDS011;6998;53.608;9.958;2022-07-25T09:24:49;4.63;;;4.10;;
13855;SDS011;6998;53.608;9.958;2022-07-25T09:27:16;4.90;;;4.50;;
13855;SDS011;6998;53.608;9.958;2022-07-25T09:29:42;5.25;;;4.20;;
13855;SDS011;6998;53.608;9.958;2022-07-25T09:32:13;4.38;;;4.07;;
13855;SDS011;6998;53.608;9.958;2022-07-25T09:34:42;4.43;;;4.07;;
13855;SDS011;6998;53.608;9.958;2022-07-25T09:37:13;5.75;;;4.30;;
13855;SDS011;6998;53.608;9.958;2022-07-25T09:39:41;4.25;;;3.95;;
13855;SDS011;6998;53.608;9.958;2022-07-25T09:42:22;4.75;;;4.35;;
13855;SDS011;6998;53.608;9.958;2022-07-25T09:44:57;4.72;;;4.32;;
13855;SDS011;6998;53.608;9.958;2022-07-25T09:47:25;4.57;;;4.10;;
13855;SDS011;6998;53.608;9.958;2022-07-25T09:49:52;6.15;;;4.20;;
13855;SDS011;6998;53.608;9.958;2022-07-25T09:52:20;4.47;;;4.07;;
13855;SDS011;6998;53.608;9.958;2022-07-25T09:54:47;4.85;;;4.38;;
13855;SDS011;6998;53.608;9.958;2022-07-25T09:57:14;5.28;;;4.72;;
13855;SDS011;6998;53.608;9.958;2022-07-25T09:59:41;5.93;;;4.30;;
13855;SDS011;6998;53.608;9.958;2022-07-25T10:02:09;4.55;;;4.07;;
13855;SDS011;6998;53.608;9.958;2022-07-25T10:04:45;4.57;;;4.13;;
13855;SDS011;6998;53.608;9.958;2022-07-25T10:07:15;4.85;;;4.45;;
13855;SDS011;6998;53.608;9.958;2022-07-25T10:09:48;4.75;;;4.35;;
13855;SDS011;6998;53.608;9.958;2022-07-25T10:12:17;4.88;;;4.43;;
13855;SDS011;6998;53.608;9.958;2022-07-25T10:17:32;4.90;;;4.18;;
13855;SDS011;6998;53.608;9.958;2022-07-25T10:19:59;4.07;;;3.75;;
13855;SDS011;6998;53.608;9.958;2022-07-25T10:22:38;4.68;;;4.28;;
13855;SDS011;6998;53.608;9.958;2022-07-25T10:25:13;4.43;;;4.13;;
13855;SDS011;6998;53.608;9.958;2022-07-25T10:27:43;4.53;;;4.00;;
13855;SDS011;6998;53.608;9.958;2022-07-25T10:30:19;4.82;;;4.43;;
13855;SDS011;6998;53.608;9.958;2022-07-25T10:32:54;5.25;;;4.43;;
13855;SDS011;6998;53.608;9.958;2022-07-25T10:35:23;4.70;;;4.30;;
13855;SDS011;6998;53.608;9.958;2022-07-25T10:37:50;4.50;;;4.10;;
13855;SDS011;6998;53.608;9.958;2022-07-25T10:40:28;4.50;;;4.20;;
13855;SDS011;6998;53.608;9.958;2022-07-25T10:43:07;5.47;;;4.57;;
13855;SDS011;6998;53.608;9.958;2022-07-25T10:45:37;4.63;;;4.10;;
13855;SDS011;6998;53.608;9.958;2022-07-25T10:48:06;5.28;;;4.65;;
13855;SDS011;6998;53.608;9.958;2022-07-25T10:50:33;4.82;;;4.25;;
13855;SDS011;6998;53.608;9.958;2022-07-25T10:53:00;4.82;;;4.30;;
13855;SDS011;6998;53.608;9.958;2022-07-25T10:55:33;4.75;;;4.43;;
13855;SDS011;6998;53.608;9.958;2022-07-25T10:58:02;4.95;;;4.55;;
13855;SDS011;6998;53.608;9.958;2022-07-25T11:00:31;5.13;;;3.88;;
13855;SDS011;6998;53.608;9.958;2022-07-25T11:02:57;5.13;;;4.60;;
13855;SDS011;6998;53.608;9.958;2022-07-25T11:05:24;4.70;;;4.40;;
13855;SDS011;6998;53.608;9.958;2022-07-25T11:07:51;5.97;;;4.82;;
13855;SDS011;6998;53.608;9.958;2022-07-25T11:10:23;4.78;;;4.47;;
13855;SDS011;6998;53.608;9.958;2022-07-25T11:12:52;6.00;;;4.15;;
13855;SDS011;6998;53.608;9.958;2022-07-25T11:15:20;5.22;;;4.82;;
13855;SDS011;6998;53.608;9.958;2022-07-25T11:17:49;4.43;;;4.03;;
13855;SDS011;6998;53.608;9.958;2022-07-25T11:20:16;5.70;;;4.50;;
13855;SDS011;6998;53.608;9.958;2022-07-25T11:22:49;4.75;;;4.32;;
13855;SDS011;6998;53.608;9.958;2022-07-25T11:25:18;4.20;;;3.90;;
13855;SDS011;6998;53.608;9.958;2022-07-25T11:27:48;5.03;;;4.53;;
13855;SDS011;6998;53.608;9.958;2022-07-25T11:30:21;4.47;;;4.07;;
13855;SDS011;6998;53.608;9.958;2022-07-25T11:32:49;4.72;;;4.18;;
13855;SDS011;6998;53.608;9.958;2022-07-25T11:35:18;5.95;;;4.20;;
13855;SDS011;6998;53.608;9.958;2022-07-25T11:37:47;4.57;;;4.18;;
13855;SDS011;6998;53.608;9.958;2022-07-25T11:40:15;7.90;;;4.50;;
13855;SDS011;6998;53.608;9.958;2022-07-25T11:42:43;4.32;;;4.00;;
13855;SDS011;6998;53.608;9.958;2022-07-25T11:45:14;4.65;;;4.13;;
13855;SDS011;6998;53.608;9.958;2022-07-25T11:47:44;4.30;;;4.00;;
13855;SDS011;6998;53.608;9.958;2022-07-25T11:50:11;4.47;;;4.13;;
13855;SDS011;6998;53.608;9.958;2022-07-25T11:52:40;4.70;;;4.30;;
13855;SDS011;6998;53.608;9.958;2022-07-25T11:55:08;5.35;;;4.18;;
13855;SDS011;6998;53.608;9.958;2022-07-25T11:57:37;4.45;;;4.05;;
13855;SDS011;6998;53.608;9.958;2022-07-25T12:00:07;4.50;;;4.15;;
13855;SDS011;6998;53.608;9.958;2022-07-25T12:02:40;6.75;;;4.38;;
13855;SDS011;6998;53.608;9.958;2022-07-25T12:05:08;4.43;;;4.13;;
13855;SDS011;6998;53.608;9.958;2022-07-25T12:07:40;4.70;;;4.30;;
13855;SDS011;6998;53.608;9.958;2022-07-25T12:10:10;4.43;;;4.03;;
13855;SDS011;6998;53.608;9.958;2022-07-25T12:12:44;4.53;;;4.03;;
13855;SDS011;6998;53.608;9.958;2022-07-25T12:15:17;5.07;;;4.30;;
13855;SDS011;6998;53.608;9.958;2022-07-25T12:17:45;4.20;;;3.90;;
13855;SDS011;6998;53.608;9.958;2022-07-25T12:20:17;4.50;;;4.15;;
13855;SDS011;6998;53.608;9.958;2022-07-25T12:22:45;4.45;;;4.05;;
13855;SDS011;6998;53.608;9.958;2022-07-25T12:25:13;4.68;;;4.18;;
13855;SDS011;6998;53.608;9.958;2022-07-25T12:27:40;4.28;;;3.88;;
13855;SDS011;6998;53.608;9.958;2022-07-25T12:30:10;4.55;;;4.10;;
13855;SDS011;6998;53.608;9.958;2022-07-25T12:32:37;4.47;;;4.15;;
13855;SDS011;6998;53.608;9.958;2022-07-25T12:35:05;5.38;;;3.97;;
13855;SDS011;6998;53.608;9.958;2022-07-25T12:37:34;4.65;;;4.03;;
13855;SDS011;6998;53.608;9.958;2022-07-25T12:40:02;5.68;;;4.00;;
13855;SDS011;6998;53.608;9.958;2022-07-25T12:42:29;6.63;;;4.18;;
13855;SDS011;6998;53.608;9.958;2022-07-25T12:44:56;4.55;;;3.92;;
13855;SDS011;6998;53.608;9.958;2022-07-25T12:47:24;4.72;;;4.20;;
13855;SDS011;6998;53.608;9.958;2022-07-25T12:49:52;4.32;;;4.03;;
13855;SDS011;6998;53.608;9.958;2022-07-25T12:52:19;5.78;;;4.00;;
13855;SDS011;6998;53.608;9.958;2022-07-25T12:54:47;5.07;;;3.90;;
13855;SDS011;6998;53.608;9.958;2022-07-25T12:57:14;4.70;;;4.30;;
13855;SDS011;6998;53.608;9.958;2022-07-25T12:59:41;4.70;;;4.30;;
13855;SDS011;6998;53.608;9.958;2022-07-25T13:02:08;4.38;;;4.07;;
13855;SDS011;6998;53.608;9.958;2022-07-25T13:04:34;4.68;;;4.28;;
13855;SDS011;6998;53.608;9.958;2022-07-25T13:07:01;5.85;;;4.22;;
13855;SDS011;6998;53.608;9.958;2022-07-25T13:09:28;4.97;;;4.25;;
13855;SDS011;6998;53.608;9.958;2022-07-25T13:11:57;4.82;;;4.38;;
13855;SDS011;6998;53.608;9.958;2022-07-25T13:14:24;4.63;;;4.22;;
13855;SDS011;6998;53.608;9.958;2022-07-25T13:16:51;5.93;;;4.50;;
13855;SDS011;6998;53.608;9.958;2022-07-25T13:19:17;4.88;;;4.47;;
13855;SDS011;6998;53.608;9.958;2022-07-25T13:21:44;5.18;;;4.70;;
13855;SDS011;6998;53.608;9.958;2022-07-25T13:24:11;5.13;;;4.57;;
13855;SDS011;6998;53.608;9.958;2022-07-25T13:26:38;4.53;;;4.13;;
13855;SDS011;6998;53.608;9.958;2022-07-25T13:29:06;4.50;;;4.20;;
13855;SDS011;6998;53.608;9.958;2022-07-25T13:31:35;4.68;;;4.20;;
13855;SDS011;6998;53.608;9.958;2022-07-25T13:34:02;4.53;;;4.13;;
13855;SDS011;6998;53.608;9.958;2022-07-25T13:36:30;4.70;;;4.25;;
13855;SDS011;6998;53.608;9.958;2022-07-25T13:38:57;4.97;;;4.30;;
13855;SDS011;6998;53.608;9.958;2022-07-25T13:41:24;6.32;;;4.40;;
13855;SDS011;6998;53.608;9.958;2022-07-25T13:43:50;6.45;;;4.40;;
13855;SDS011;6998;53.608;9.958;2022-07-25T13:46:19;4.65;;;4.25;;
13855;SDS011;6998;53.608;9.958;2022-07-25T13:48:46;4.45;;;4.15;;
13855;SDS011;6998;53.608;9.958;2022-07-25T13:51:13;4.68;;;4.13;;
13855;SDS011;6998;53.608;9.958;2022-07-25T13:53:40;7.03;;;4.78;;
13855;SDS011;6998;53.608;9.958;2022-07-25T13:56:09;5.35;;;4.53;;
13855;SDS011;6998;53.608;9.958;2022-07-25T13:58:37;4.45;;;4.03;;
13855;SDS011;6998;53.608;9.958;2022-07-25T14:01:04;5.82;;;4.40;;
13855;SDS011;6998;53.608;9.958;2022-07-25T14:03:32;4.63;;;4.32;;
13855;SDS011;6998;53.608;9.958;2022-07-25T14:06:00;5.20;;;4.80;;
13855;SDS011;6998;53.608;9.958;2022-07-25T14:08:27;5.90;;;4.50;;
13855;SDS011;6998;53.608;9.958;2022-07-25T14:10:53;8.18;;;5.38;;
13855;SDS011;6998;53.608;9.958;2022-07-25T14:13:20;7.93;;;5.28;;
13855;SDS011;6998;53.608;9.958;2022-07-25T14:15:47;8.77;;;5.80;;
13855;SDS011;6998;53.608;9.958;2022-07-25T14:18:13;7.63;;;6.30;;
13855;SDS011;6998;53.608;9.958;2022-07-25T14:20:42;8.38;;;5.90;;
13855;SDS011;6998;53.608;9.958;2022-07-25T14:23:08;8.35;;;7.13;;
13855;SDS011;6998;53.608;9.958;2022-07-25T14:25:35;11.13;;;6.50;;
13855;SDS011;6998;53.608;9.958;2022-07-25T14:28:03;7.47;;;6.75;;
13855;SDS011;6998;53.608;9.958;2022-07-25T14:30:30;7.10;;;5.65;;
13855;SDS011;6998;53.608;9.958;2022-07-25T14:32:56;7.97;;;5.82;;
13855;SDS011;6998;53.608;9.958;2022-07-25T14:35:23;6.47;;;5.07;;
13855;SDS011;6998;53.608;9.958;2022-07-25T14:37:51;9.18;;;4.93;;
13855;SDS011;6998;53.608;9.958;2022-07-25T14:40:18;6.97;;;4.50;;
13855;SDS011;6998;53.608;9.958;2022-07-25T14:42:45;5.93;;;4.47;;
13855;SDS011;6998;53.608;9.958;2022-07-25T14:45:13;6.30;;;5.50;;
13855;SDS011;6998;53.608;9.958;2022-07-25T14:47:40;5.63;;;5.13;;
13855;SDS011;6998;53.608;9.958;2022-07-25T14:50:07;5.65;;;4.53;;
13855;SDS011;6998;53.608;9.958;2022-07-25T14:52:34;5.80;;;4.82;;
13855;SDS011;6998;53.608;9.958;2022-07-25T14:55:03;5.70;;;4.07;;
13855;SDS011;6998;53.608;9.958;2022-07-25T14:57:30;5.30;;;4.10;;
13855;SDS011;6998;53.608;9.958;2022-07-25T14:59:57;4.65;;;3.60;;
13855;SDS011;6998;53.608;9.958;2022-07-25T15:02:25;6.95;;;3.95;;
13855;SDS011;6998;53.608;9.958;2022-07-25T15:04:52;7.32;;;4.32;;
13855;SDS011;6998;53.608;9.958;2022-07-25T15:07:19;6.85;;;4.20;;